Time,TemperatureF,DewpointF,PressureIn,WindDirection,WindDirectionDegrees,WindSpeedMPH,WindSpeedGustMPH,Humidity,HourlyPrecipIn,Conditions,Clouds,dailyrainin,SoftwareType,DateUTC
2013-02-04 00:01:00,47.0,42.0,-100.00,North,6,2.0,3.0,83,-99.99,,,-99.99,,2013-02-04 08:01:00,
2013-02-04 00:11:00,47.0,41.0,-100.00,NNE,19,2.0,3.0,81,-99.99,,,-99.99,,2013-02-04 08:11:00,
2013-02-04 00:21:00,48.0,42.0,-100.00,NNE,20,2.0,3.0,79,-99.99,,,-99.99,,2013-02-04 08:21:00,
2013-02-04 00:31:00,49.0,42.0,-100.00,NNE,33,3.0,4.0,77,-99.99,,,-99.99,,2013-02-04 08:31:00,
2013-02-04 00:41:00,48.0,41.0,-100.00,NNE,14,2.0,3.0,78,-99.99,,,-99.99,,2013-02-04 08:41:00,
2013-02-04 00:52:00,44.0,40.0,-100.00,ENE,57,4.0,5.0,85,-99.99,,,-99.99,,2013-02-04 08:52:00,
2013-02-04 01:01:00,44.0,40.0,-100.00,ENE,57,4.0,5.0,85,-99.99,,,-99.99,,2013-02-04 09:01:00,
2013-02-04 01:11:00,45.0,41.0,-100.00,North,5,3.0,5.0,85,-99.99,,,-99.99,,2013-02-04 09:11:00,
2013-02-04 01:21:00,47.0,41.0,-100.00,North,356,1.0,3.0,79,-99.99,,,-99.99,,2013-02-04 09:21:00,
2013-02-04 01:31:00,45.0,39.0,-100.00,NE,48,2.0,3.0,80,-99.99,,,-99.99,,2013-02-04 09:31:00,
2013-02-04 01:41:00,45.0,40.0,-100.00,North,1,2.0,2.0,84,-99.99,,,-99.99,,2013-02-04 09:41:00,
2013-02-04 01:51:00,45.0,39.0,-100.00,NNE,23,2.0,3.0,79,-99.99,,,-99.99,,2013-02-04 09:51:00,
2013-02-04 02:01:00,45.0,39.0,-100.00,NNE,23,2.0,3.0,79,-99.99,,,-99.99,,2013-02-04 10:01:00,
2013-02-04 02:11:00,45.0,39.0,-100.00,NNE,29,2.0,5.0,80,-99.99,,,-99.99,,2013-02-04 10:11:00,
2013-02-04 02:21:00,44.0,39.0,-100.00,NNW,344,1.0,4.0,84,-99.99,,,-99.99,,2013-02-04 10:21:00,
2013-02-04 02:32:00,47.0,41.0,-100.00,NNE,12,1.0,2.0,79,-99.99,,,-99.99,,2013-02-04 10:32:00,
2013-02-04 02:41:00,44.0,38.0,-100.00,NNE,25,1.0,3.0,80,-99.99,,,-99.99,,2013-02-04 10:41:00,
2013-02-04 02:51:00,43.0,38.0,-100.00,NNE,26,1.0,2.0,83,-99.99,,,-99.99,,2013-02-04 10:51:00,
2013-02-04 03:01:00,45.0,40.0,-100.00,North,0,2.0,2.0,82,-99.99,,,-99.99,,2013-02-04 11:01:00,
2013-02-04 03:11:00,46.0,39.0,-100.00,NNE,18,3.0,4.0,77,-99.99,,,-99.99,,2013-02-04 11:11:00,
2013-02-04 03:22:00,47.0,39.0,-100.00,North,358,2.0,4.0,75,-99.99,,,-99.99,,2013-02-04 11:22:00,
2013-02-04 03:32:00,48.0,39.0,-100.00,NNE,31,3.0,3.0,72,-99.99,,,-99.99,,2013-02-04 11:32:00,
2013-02-04 03:42:00,48.0,40.0,-100.00,NNE,15,2.0,3.0,73,-99.99,,,-99.99,,2013-02-04 11:42:00,
2013-02-04 03:52:00,48.0,39.0,-100.00,NNE,18,2.0,3.0,71,-99.99,,,-99.99,,2013-02-04 11:52:00,
2013-02-04 04:02:00,48.0,39.0,-100.00,NNE,18,2.0,3.0,71,-99.99,,,-99.99,,2013-02-04 12:02:00,
2013-02-04 04:12:00,48.0,39.0,-100.00,NNE,13,2.0,4.0,71,-99.99,,,-99.99,,2013-02-04 12:12:00,
2013-02-04 04:21:00,47.0,39.0,-100.00,North,8,2.0,3.0,73,-99.99,,,-99.99,,2013-02-04 12:21:00,
2013-02-04 04:32:00,47.0,39.0,-100.00,NNW,328,1.0,2.0,74,-99.99,,,-99.99,,2013-02-04 12:32:00,
2013-02-04 04:42:00,46.0,39.0,-100.00,NW,320,2.0,3.0,76,-99.99,,,-99.99,,2013-02-04 12:42:00,
2013-02-04 04:52:00,44.0,38.0,-100.00,NNE,32,2.0,3.0,79,-99.99,,,-99.99,,2013-02-04 12:52:00,
2013-02-04 05:02:00,45.0,39.0,-100.00,North,352,1.0,3.0,80,-99.99,,,-99.99,,2013-02-04 13:02:00,
2013-02-04 05:11:00,44.0,38.0,-100.00,NNE,15,2.0,3.0,79,-99.99,,,-99.99,,2013-02-04 13:11:00,
2013-02-04 05:21:00,47.0,39.0,-100.00,North,11,2.0,2.0,74,-99.99,,,-99.99,,2013-02-04 13:21:00,
2013-02-04 05:32:00,47.0,38.0,-100.00,North,353,2.0,3.0,72,-99.99,,,-99.99,,2013-02-04 13:32:00,
2013-02-04 05:41:00,47.0,38.0,-100.00,North,353,2.0,3.0,72,-99.99,,,-99.99,,2013-02-04 13:41:00,
2013-02-04 05:51:00,48.0,38.0,-100.00,NNE,18,3.0,3.0,68,-99.99,,,-99.99,,2013-02-04 13:51:00,
2013-02-04 06:02:00,48.0,38.0,-100.00,NNE,15,1.0,2.0,68,-99.99,,,-99.99,,2013-02-04 14:02:00,
2013-02-04 06:11:00,44.0,36.0,-100.00,NE,40,3.0,4.0,74,-99.99,,,-99.99,,2013-02-04 14:11:00,
2013-02-04 06:21:00,42.0,36.0,-100.00,NNE,26,2.0,4.0,80,-99.99,,,-99.99,,2013-02-04 14:21:00,
2013-02-04 06:32:00,44.0,38.0,-100.00,NNE,14,2.0,3.0,79,-99.99,,,-99.99,,2013-02-04 14:32:00,
2013-02-04 06:42:00,45.0,37.0,-100.00,NNE,29,2.0,2.0,74,-99.99,,,-99.99,,2013-02-04 14:42:00,
2013-02-04 06:52:00,46.0,38.0,-100.00,NNE,33,1.0,2.0,74,-99.99,,,-99.99,,2013-02-04 14:52:00,
2013-02-04 07:03:00,45.0,38.0,-100.00,NNE,29,1.0,2.0,75,-99.99,,,-99.99,,2013-02-04 15:03:00,
2013-02-04 07:12:00,46.0,38.0,-100.00,NNE,12,2.0,3.0,73,-99.99,,,-99.99,,2013-02-04 15:12:00,
2013-02-04 07:23:00,47.0,38.0,-100.00,North,353,2.0,3.0,71,-99.99,,,-99.99,,2013-02-04 15:23:00,
2013-02-04 07:33:00,47.0,38.0,-100.00,North,7,2.0,3.0,70,-99.99,,,-99.99,,2013-02-04 15:33:00,
2013-02-04 07:40:00,47.0,39.0,-100.00,NE,44,3.0,4.0,75,-99.99,,,-99.99,,2013-02-04 15:40:00,
2013-02-04 07:43:00,48.0,38.0,-100.00,NE,36,2.0,3.0,68,-99.99,,,-99.99,,2013-02-04 15:43:00,
2013-02-04 07:52:00,48.0,38.0,-100.00,NE,40,2.0,4.0,68,-99.99,,,-99.99,,2013-02-04 15:52:00,
2013-02-04 08:02:00,48.0,38.0,-100.00,NE,40,3.0,5.0,68,-99.99,,,-99.99,,2013-02-04 16:02:00,
2013-02-04 08:11:00,47.0,39.0,-100.00,NE,44,3.0,4.0,75,-99.99,,,-99.99,,2013-02-04 16:11:00,
2013-02-04 08:22:00,47.0,39.0,-100.00,NE,44,3.0,4.0,75,-99.99,,,-99.99,,2013-02-04 16:22:00,
2013-02-04 08:32:00,47.0,39.0,-100.00,NE,44,3.0,4.0,75,-99.99,,,-99.99,,2013-02-04 16:32:00,
2013-02-04 09:42:00,64.0,37.0,-100.00,SE,130,2.0,5.0,37,-99.99,,,-99.99,,2013-02-04 17:42:00,
2013-02-04 09:52:00,64.0,37.0,-100.00,SE,130,2.0,5.0,37,-99.99,,,-99.99,,2013-02-04 17:52:00,
2013-02-04 10:03:00,64.0,36.0,-100.00,North,9,5.0,9.0,35,-99.99,,,-99.99,,2013-02-04 18:03:00,
2013-02-04 10:11:00,64.0,37.0,-100.00,West,264,4.0,7.0,36,-99.99,,,-99.99,,2013-02-04 18:11:00,
2013-02-04 10:22:00,64.0,37.0,-100.00,SW,235,5.0,8.0,36,-99.99,,,-99.99,,2013-02-04 18:22:00,
2013-02-04 10:31:00,64.0,37.0,-100.00,SSW,195,4.0,7.0,37,-99.99,,,-99.99,,2013-02-04 18:31:00,
2013-02-04 10:41:00,65.0,38.0,-100.00,South,181,5.0,10.0,37,-99.99,,,-99.99,,2013-02-04 18:41:00,
2013-02-04 10:52:00,65.0,37.0,-100.00,SW,221,5.0,8.0,36,-99.99,,,-99.99,,2013-02-04 18:52:00,
2013-02-04 11:01:00,65.0,37.0,-100.00,SW,214,5.0,10.0,35,-99.99,,,-99.99,,2013-02-04 19:01:00,
2013-02-04 11:11:00,65.0,37.0,-100.00,SW,217,7.0,11.0,35,-99.99,,,-99.99,,2013-02-04 19:11:00,
2013-02-04 11:22:00,65.0,38.0,-100.00,SW,220,9.0,13.0,37,-99.99,,,-99.99,,2013-02-04 19:22:00,
2013-02-04 11:31:00,65.0,39.0,-100.00,SW,214,10.0,14.0,38,-99.99,,,-99.99,,2013-02-04 19:31:00,
2013-02-04 11:41:00,65.0,39.0,-100.00,SW,220,10.0,15.0,38,-99.99,,,-99.99,,2013-02-04 19:41:00,
2013-02-04 11:51:00,65.0,38.0,-100.00,SW,218,9.0,14.0,37,-99.99,,,-99.99,,2013-02-04 19:51:00,
2013-02-04 12:01:00,65.0,37.0,-100.00,SSW,210,9.0,15.0,35,-99.99,,,-99.99,,2013-02-04 20:01:00,
2013-02-04 12:11:00,66.0,34.0,-100.00,NNE,16,5.0,10.0,30,-99.99,,,-99.99,,2013-02-04 20:11:00,
2013-02-04 12:21:00,66.0,36.0,-100.00,SE,128,5.0,11.0,33,-99.99,,,-99.99,,2013-02-04 20:21:00,
2013-02-04 12:31:00,65.0,41.0,-100.00,SSW,195,10.0,16.0,41,-99.99,,,-99.99,,2013-02-04 20:31:00,
2013-02-04 12:42:00,65.0,41.0,-100.00,SSW,195,10.0,16.0,41,-99.99,,,-99.99,,2013-02-04 20:42:00,
2013-02-04 12:52:00,66.0,38.0,-100.00,SSW,194,7.0,14.0,36,-99.99,,,-99.99,,2013-02-04 20:52:00,
2013-02-04 13:01:00,67.0,37.0,-100.00,WNW,290,7.0,14.0,33,-99.99,,,-99.99,,2013-02-04 21:01:00,
2013-02-04 13:11:00,67.0,35.0,-100.00,SSW,198,4.0,12.0,31,-99.99,,,-99.99,,2013-02-04 21:11:00,
2013-02-04 13:22:00,67.0,36.0,-100.00,WSW,245,8.0,18.0,32,-99.99,,,-99.99,,2013-02-04 21:22:00,
2013-02-04 13:31:00,66.0,35.0,-100.00,WSW,252,9.0,15.0,32,-99.99,,,-99.99,,2013-02-04 21:31:00,
2013-02-04 13:42:00,66.0,35.0,-100.00,WSW,257,8.0,14.0,32,-99.99,,,-99.99,,2013-02-04 21:42:00,
2013-02-04 13:51:00,66.0,37.0,-100.00,WSW,246,10.0,16.0,34,-99.99,,,-99.99,,2013-02-04 21:51:00,
2013-02-04 14:02:00,66.0,36.0,-100.00,WSW,254,10.0,16.0,33,-99.99,,,-99.99,,2013-02-04 22:02:00,
2013-02-04 14:11:00,66.0,38.0,-100.00,WSW,248,10.0,15.0,35,-99.99,,,-99.99,,2013-02-04 22:11:00,
2013-02-04 14:21:00,65.0,39.0,-100.00,WSW,250,10.0,14.0,38,-99.99,,,-99.99,,2013-02-04 22:21:00,
2013-02-04 14:32:00,65.0,39.0,-100.00,WSW,245,10.0,16.0,39,-99.99,,,-99.99,,2013-02-04 22:32:00,
2013-02-04 14:41:00,66.0,40.0,-100.00,WSW,255,8.0,12.0,38,-99.99,,,-99.99,,2013-02-04 22:41:00,
2013-02-04 14:51:00,67.0,40.0,-100.00,West,267,6.0,16.0,37,-99.99,,,-99.99,,2013-02-04 22:51:00,
2013-02-04 15:01:00,65.0,41.0,-100.00,WSW,248,10.0,15.0,42,-99.99,,,-99.99,,2013-02-04 23:01:00,
2013-02-04 15:11:00,65.0,42.0,-100.00,WSW,244,11.0,17.0,43,-99.99,,,-99.99,,2013-02-04 23:11:00,
2013-02-04 15:21:00,64.0,40.0,-100.00,WSW,240,12.0,17.0,41,-99.99,,,-99.99,,2013-02-04 23:21:00,
2013-02-04 15:32:00,65.0,39.0,-100.00,WSW,244,9.0,14.0,39,-99.99,,,-99.99,,2013-02-04 23:32:00,
2013-02-04 15:41:00,65.0,39.0,-100.00,WSW,257,7.0,14.0,38,-99.99,,,-99.99,,2013-02-04 23:41:00,
2013-02-04 15:52:00,66.0,40.0,-100.00,WSW,244,7.0,11.0,39,-99.99,,,-99.99,,2013-02-04 23:52:00,
2013-02-04 16:01:00,65.0,39.0,-100.00,WSW,247,8.0,13.0,38,-99.99,,,-99.99,,2013-02-05 00:01:00,
2013-02-04 16:11:00,65.0,37.0,-100.00,WSW,256,7.0,12.0,36,-99.99,,,-99.99,,2013-02-05 00:11:00,
2013-02-04 16:21:00,65.0,39.0,-100.00,West,259,6.0,10.0,38,-99.99,,,-99.99,,2013-02-05 00:21:00,
2013-02-04 16:31:00,66.0,42.0,-100.00,NNE,13,3.0,8.0,41,-99.99,,,-99.99,,2013-02-05 00:31:00,
2013-02-04 16:41:00,65.0,41.0,-100.00,NE,36,3.0,8.0,41,-99.99,,,-99.99,,2013-02-05 00:41:00,
2013-02-04 16:51:00,65.0,41.0,-100.00,NW,307,3.0,7.0,42,-99.99,,,-99.99,,2013-02-05 00:51:00,
2013-02-04 17:01:00,65.0,44.0,-100.00,SW,233,1.0,4.0,46,-99.99,,,-99.99,,2013-02-05 01:01:00,
2013-02-04 17:11:00,64.0,46.0,-100.00,ENE,59,1.0,4.0,52,-99.99,,,-99.99,,2013-02-05 01:11:00,
2013-02-04 17:21:00,63.0,47.0,-100.00,WSW,238,3.0,6.0,56,-99.99,,,-99.99,,2013-02-05 01:21:00,
2013-02-04 17:32:00,61.0,48.0,-100.00,WSW,241,3.0,8.0,62,-99.99,,,-99.99,,2013-02-05 01:32:00,
2013-02-04 17:42:00,60.0,47.0,-100.00,NNE,25,2.0,4.0,63,-99.99,,,-99.99,,2013-02-05 01:42:00,
2013-02-04 17:51:00,59.0,46.0,-100.00,NNE,17,3.0,4.0,61,-99.99,,,-99.99,,2013-02-05 01:51:00,
2013-02-04 18:01:00,59.0,46.0,-100.00,NNE,17,3.0,4.0,61,-99.99,,,-99.99,,2013-02-05 02:01:00,
2013-02-04 18:11:00,57.0,47.0,-100.00,SSE,156,1.0,2.0,70,-99.99,,,-99.99,,2013-02-05 02:11:00,
2013-02-04 18:21:00,56.0,47.0,-100.00,South,176,0.0,1.0,73,-99.99,,,-99.99,,2013-02-05 02:21:00,
2013-02-04 18:31:00,55.0,47.0,-100.00,North,352,1.0,2.0,74,-99.99,,,-99.99,,2013-02-05 02:31:00,
2013-02-04 18:41:00,54.0,46.0,-100.00,East,94,3.0,5.0,75,-99.99,,,-99.99,,2013-02-05 02:41:00,
2013-02-04 18:52:00,53.0,46.0,-100.00,ENE,65,3.0,4.0,77,-99.99,,,-99.99,,2013-02-05 02:52:00,
2013-02-04 19:01:00,53.0,47.0,-100.00,NNE,15,2.0,4.0,79,-99.99,,,-99.99,,2013-02-05 03:01:00,
2013-02-04 19:11:00,52.0,45.0,-100.00,WSW,253,1.0,2.0,78,-99.99,,,-99.99,,2013-02-05 03:11:00,
2013-02-04 19:21:00,52.0,45.0,-100.00,North,1,1.0,2.0,78,-99.99,,,-99.99,,2013-02-05 03:21:00,
2013-02-04 19:31:00,52.0,45.0,-100.00,NNE,30,2.0,5.0,78,-99.99,,,-99.99,,2013-02-05 03:31:00,
2013-02-04 19:41:00,51.0,45.0,-100.00,NE,46,4.0,5.0,80,-99.99,,,-99.99,,2013-02-05 03:41:00,
2013-02-04 19:51:00,50.0,44.0,-100.00,NNE,21,3.0,5.0,79,-99.99,,,-99.99,,2013-02-05 03:51:00,
2013-02-04 20:01:00,51.0,45.0,-100.00,NNE,25,3.0,5.0,80,-99.99,,,-99.99,,2013-02-05 04:01:00,
2013-02-04 20:11:00,52.0,46.0,-100.00,NE,39,3.0,5.0,79,-99.99,,,-99.99,,2013-02-05 04:11:00,
2013-02-04 20:21:00,50.0,44.0,-100.00,NE,56,4.0,6.0,80,-99.99,,,-99.99,,2013-02-05 04:21:00,
2013-02-04 20:31:00,48.0,44.0,-100.00,NE,56,5.0,5.0,85,-99.99,,,-99.99,,2013-02-05 04:31:00,
2013-02-04 20:41:00,47.0,43.0,-100.00,NE,44,4.0,5.0,86,-99.99,,,-99.99,,2013-02-05 04:41:00,
2013-02-04 20:52:00,49.0,45.0,-100.00,NNE,21,4.0,5.0,85,-99.99,,,-99.99,,2013-02-05 04:52:00,
2013-02-04 21:01:00,52.0,45.0,-100.00,NNE,16,2.0,5.0,78,-99.99,,,-99.99,,2013-02-05 05:01:00,
2013-02-04 21:11:00,51.0,43.0,-100.00,NNE,18,0.0,2.0,75,-99.99,,,-99.99,,2013-02-05 05:11:00,
2013-02-04 21:21:00,49.0,42.0,-100.00,NE,47,3.0,5.0,77,-99.99,,,-99.99,,2013-02-05 05:21:00,
2013-02-04 21:31:00,48.0,42.0,-100.00,NNE,31,2.0,4.0,80,-99.99,,,-99.99,,2013-02-05 05:31:00,
2013-02-04 21:42:00,47.0,41.0,-100.00,ESE,107,2.0,4.0,79,-99.99,,,-99.99,,2013-02-05 05:42:00,
2013-02-04 21:52:00,47.0,42.0,-100.00,North,352,3.0,5.0,84,-99.99,,,-99.99,,2013-02-05 05:52:00,
2013-02-04 22:01:00,47.0,42.0,-100.00,North,352,3.0,5.0,84,-99.99,,,-99.99,,2013-02-05 06:01:00,
2013-02-04 22:11:00,48.0,40.0,-100.00,NNE,32,2.0,4.0,73,-99.99,,,-99.99,,2013-02-05 06:11:00,
2013-02-04 22:21:00,45.0,39.0,-100.00,ENE,66,2.0,3.0,78,-99.99,,,-99.99,,2013-02-05 06:21:00,
2013-02-04 22:31:00,44.0,39.0,-100.00,East,91,1.0,2.0,83,-99.99,,,-99.99,,2013-02-05 06:31:00,
2013-02-04 22:41:00,45.0,40.0,-100.00,NE,51,1.0,2.0,82,-99.99,,,-99.99,,2013-02-05 06:41:00,
2013-02-04 22:51:00,45.0,39.0,-100.00,NNE,22,3.0,6.0,79,-99.99,,,-99.99,,2013-02-05 06:51:00,
2013-02-04 23:01:00,45.0,39.0,-100.00,NNE,23,3.0,5.0,79,-99.99,,,-99.99,,2013-02-05 07:01:00,
2013-02-04 23:11:00,47.0,40.0,-100.00,NE,44,2.0,4.0,76,-99.99,,,-99.99,,2013-02-05 07:11:00,
2013-02-04 23:22:00,44.0,38.0,-100.00,NE,50,3.0,5.0,78,-99.99,,,-99.99,,2013-02-05 07:22:00,
2013-02-04 23:31:00,44.0,39.0,-100.00,NE,41,5.0,7.0,83,-99.99,,,-99.99,,2013-02-05 07:31:00,
2013-02-04 23:41:00,44.0,38.0,-100.00,NE,37,5.0,6.0,80,-99.99,,,-99.99,,2013-02-05 07:41:00,
2013-02-04 23:51:00,45.0,39.0,-100.00,NE,48,2.0,5.0,78,-99.99,,,-99.99,,2013-02-05 07:51:00,